• Join FlightAware (Why Join?)
  • Login
  • US Flag 
09:16AM EST


 

Airport Tracker/Info


-or-


 

Live Flight TrackerFlight Track Log ✈ FLG3780 ✈ 09-May-2013 ✈ KALB - KDTW

Flight Track Log - Related Links

Times and Time Zones

All times are in EDT time to prevent confusion due to time zone crossing. See the FLG3780 flight status page for this flight to view local times or setup timezone preferences in your user account.

Time Position Orientation Groundspeed Altitude Reporting Facility
EDT Latitude Longitude Course Direction KTS MPH feet Rate Location/Type
09:23AM 42.7236 -73.8081 283° West 149 171 1,300  Level Boston Center
09:24AM 42.7061 -73.8614 246° West 208 239 3,100 2,040 Climbing Boston Center
09:26AM 42.8119 -74.1830 281° West  Level FlightAware Approximate
09:26AM 42.7428 -73.9356 304° West 266 306 5,700  Level Boston Center
09:27AM 42.8307 -74.3150 281° West  Level FlightAware Approximate
09:27AM 42.8003 -74.0022 320° Northwest 277 319 8,300  Level Boston Center
09:28AM 42.8522 -74.4463 283° West  Level FlightAware Approximate
09:28AM 42.8639 -74.0744 320° Northwest 282 325 10,600  Level Boston Center
09:29AM 42.8842 -74.5714 283° West  Level FlightAware Approximate
09:29AM 42.9397 -74.1617 320° Northwest 307 353 12,300  Level Boston Center
09:30AM 43.0050 -74.2486 316° Northwest 343 395 13,700 1,440 Climbing Boston Center
09:31AM 43.0236 -74.3911 280° West 337 388 15,200 1,200 Climbing Boston Center
09:32AM 43.0317 -74.5164 275° West 358 412 16,200 1,080 Climbing Boston Center
09:33AM 43.0453 -74.6789 277° West 389 448 17,400 1,440 Climbing Boston Center
09:34AM 43.0592 -74.8186 278° West 400 460 19,100 1,560 Climbing Boston Center
09:35AM 43.0706 -74.9669 276° West 400 460 20,600 1,380 Climbing Boston Center
09:36AM 43.0817 -75.1153 276° West 405 466 21,900 1,200 Climbing Boston Center
09:37AM 43.1239 -75.2736 290° West 405 466 23,000 1,020 Climbing Boston Center
09:38AM 43.1594 -75.4261 288° West 410 472 24,000 900 Climbing Boston Center
09:39AM 43.1878 -75.5442 288° West 415 478 24,800 960 Climbing Boston Center
09:40AM 43.1864 -75.7350 269° West 415 478 26,000 1,140 Climbing Boston Center
09:41AM 43.1733 -75.8939 264° West 415 478 27,100 540 Climbing Boston Center
09:43AM 43.1433 -76.2864 264° West 432 497 28,000 240 Climbing Cleveland Center
09:44AM 43.1286 -76.4553 263° West 444 511 28,000  Level Cleveland Center
09:45AM 43.1158 -76.6267 264° West 450 518 28,000  Level Cleveland Center
09:46AM 43.0992 -76.8156 263° West 450 518 28,000  Level Cleveland Center
09:47AM 43.0836 -76.9842 263° West 455 524 28,000  Level Cleveland Center
09:48AM 43.0681 -77.1556 263° West 455 524 28,000  Level Cleveland Center
09:49AM 43.0542 -77.3242 264° West 455 524 28,000  Level Cleveland Center
09:50AM 43.0400 -77.4925 263° West 455 524 28,000  Level Cleveland Center
09:51AM 43.0236 -77.6636 263° West 455 524 28,000  Level Cleveland Center
09:52AM 43.0089 -77.8319 263° West 450 518 28,000  Level Cleveland Center
09:53AM 42.9919 -77.9975 262° West 450 518 28,000  Level Cleveland Center
09:54AM 42.9786 -78.1511 263° West 450 518 28,000  Level Cleveland Center
09:55AM 42.9633 -78.3164 263° West 450 518 28,000  Level Cleveland Center
09:56AM 42.9456 -78.4817 262° West 450 518 28,000  Level Cleveland Center
09:57AM 42.9297 -78.6494 263° West 450 518 28,000  Level Cleveland Center
09:58AM 42.9072 -78.8117 259° West 450 518 28,000  Level Cleveland Center
09:59AM 42.8825 -78.9739 258° West 450 518 28,000  Level Cleveland Center
10:00AM 42.8597 -79.1386 259° West 450 518 28,000  Level Cleveland Center
10:01AM 42.8367 -79.3033 259° West 450 518 28,000  Level Cleveland Center
10:02AM 42.8133 -79.4681 259° West 450 518 28,000  Level Cleveland Center
10:03AM 42.7878 -79.6325 258° West 450 518 28,000  Level Cleveland Center
10:04AM 42.7639 -79.7914 258° West 450 518 28,000  Level Cleveland Center
10:05AM 42.7503 -79.9583 264° West 450 518 28,000  Level Cleveland Center
10:06AM 42.7386 -80.1422 265° West 444 511 28,000  Level Cleveland Center
10:07AM 42.7328 -80.2836 267° West 444 511 28,000  Level Cleveland Center
10:08AM 42.7247 -80.4503 266° West 444 511 28,000  Level Cleveland Center
10:09AM 42.7186 -80.6114 267° West 439 505 28,000  Level Cleveland Center
10:10AM 42.7100 -80.7753 266° West 439 505 28,000 -60 Level Cleveland Center
10:11AM 42.7014 -80.9364 266° West 439 505 27,900 -600 Descending Cleveland Center
10:12AM 42.6819 -81.0944 261° West 439 505 26,800 -1,080 Descending Cleveland Center
10:13AM 42.6644 -81.2581 262° West 434 499 25,800 -1,020 Descending Cleveland Center
10:14AM 42.6469 -81.4158 261° West 429 494 24,800 -1,380 Descending Cleveland Center
10:15AM 42.6267 -81.5878 261° West 429 494 23,100 -1,800 Descending Cleveland Center
10:16AM 42.6064 -81.7425 260° West 429 494 21,300 -1,800 Descending Cleveland Center
10:17AM 42.5881 -81.8972 261° West 422 486 19,500 -1,800 Descending Cleveland Center
10:18AM 42.5697 -82.0519 261° West 422 486 17,700 -1,740 Descending Cleveland Center
10:19AM 42.5511 -82.1981 260° West 422 486 16,100 -1,620 Descending Cleveland Center
10:20AM 42.5439 -82.2600 261° West 401 461 15,400 -1,680 Descending Cleveland Center
10:20AM 42.5342 -82.3442 261° West 410 472 14,400 -1,740 Descending Cleveland Center
10:21AM 42.5247 -82.4228 261° West 377 434 13,500 -1,680 Descending Cleveland Center
10:21AM 42.5156 -82.4789 258° West 383 441 12,800 -1,440 Descending Cleveland Center
10:22AM 42.5058 -82.5547 260° West 351 404 12,100 -840 Descending Cleveland Center
10:22AM 42.4842 -82.6075 241° Southwest 362 417 12,000 -180 Descending Cleveland Center
10:23AM 42.4597 -82.6800 245° Southwest 339 390 11,900 -720 Descending Cleveland Center
10:23AM 42.4467 -82.7161 244° Southwest 337 388 11,300 -1,320 Descending Cleveland Center
10:24AM 42.4247 -82.7772 244° Southwest 317 365 10,700 -1,440 Descending Cleveland Center
10:24AM 42.4197 -82.8219 261° West 313 360 9,900 -1,680 Descending Cleveland Center
10:25AM 42.4144 -82.8781 263° West 267 307 9,000 -1,440 Descending Cleveland Center
10:25AM 42.4094 -82.9172 260° West 273 314 8,500 -1,200 Descending Cleveland Center
10:26AM 42.4064 -82.9650 265° West 240 276 7,900 -1,320 Descending Cleveland Center
10:26AM 42.3994 -82.9986 254° West 253 291 7,200 -1,740 Descending Cleveland Center
10:27AM 42.3897 -83.0600 258° West 221 254 6,000 -1,680 Descending Cleveland Center
10:27AM 42.3831 -83.0767 242° Southwest 234 269 5,600 -1,560 Descending Cleveland Center
10:28AM 42.3692 -83.1492 255° West 224 258 4,300 -1,500 Descending Cleveland Center
10:28AM 42.3583 -83.1628 223° Southwest 234 269 4,100 -840 Descending Cleveland Center
10:29AM 42.3486 -83.2242 258° West 190 219 3,500 -840 Descending Cleveland Center
10:30AM 42.3100 -83.2703 221° Southwest 185 213 2,700 -840 Descending Cleveland Center